createdAt,value
2022-08-05T00:00:50.250Z,23.25
2022-08-05T00:06:38.905Z,23.21
2022-08-05T00:09:13.034Z,23.15
2022-08-05T00:11:48.335Z,23.11
2022-08-05T00:14:17.194Z,23.02
2022-08-05T00:16:53.655Z,22.99
2022-08-05T00:19:22.291Z,22.95
2022-08-05T00:21:49.410Z,22.92
2022-08-05T00:24:16.246Z,22.90
2022-08-05T00:26:52.093Z,22.84
2022-08-05T00:29:18.939Z,22.78
2022-08-05T00:32:10.185Z,22.75
2022-08-05T00:34:54.152Z,22.69
2022-08-05T00:37:22.459Z,22.64
2022-08-05T00:39:58.102Z,22.63
2022-08-05T00:42:36.841Z,22.57
2022-08-05T00:45:05.455Z,22.51
2022-08-05T00:47:57.002Z,22.43
2022-08-05T00:50:21.866Z,22.33
2022-08-05T00:52:52.082Z,22.30
2022-08-05T00:55:19.911Z,22.27
2022-08-05T00:57:58.127Z,22.24
2022-08-05T01:00:26.689Z,22.18
2022-08-05T01:02:53.219Z,22.15
2022-08-05T01:05:19.736Z,22.12
2022-08-05T01:08:29.824Z,22.09
2022-08-05T01:10:52.926Z,22.07
2022-08-05T01:13:58.982Z,22.05
2022-08-05T01:16:45.008Z,22.02
2022-08-05T01:19:46.129Z,22.01
2022-08-05T01:22:18.777Z,22.01
2022-08-05T01:24:50.252Z,21.97
2022-08-05T01:27:35.406Z,21.95
2022-08-05T01:30:18.970Z,21.94
2022-08-05T01:32:47.213Z,21.87
2022-08-05T01:35:51.596Z,21.88
2022-08-05T01:38:04.454Z,21.90
2022-08-05T01:40:32.154Z,21.80
2022-08-05T01:43:00.814Z,21.74
2022-08-05T01:45:34.921Z,21.72
2022-08-05T01:48:10.370Z,21.73
2022-08-05T01:50:38.693Z,21.73
2022-08-05T01:53:09.818Z,21.70
2022-08-05T01:55:39.406Z,21.65
2022-08-05T01:58:09.563Z,21.65
2022-08-05T02:00:43.831Z,21.62
2022-08-05T02:03:24.389Z,21.60
2022-08-05T02:05:59.719Z,21.58
2022-08-05T02:08:31.188Z,21.54
2022-08-05T02:11:02.363Z,21.51
2022-08-05T02:13:36.441Z,21.48
2022-08-05T02:16:19.853Z,21.44
2022-08-05T02:18:52.659Z,21.40
2022-08-05T02:21:21.973Z,21.38
2022-08-05T02:23:52.224Z,21.37
2022-08-05T02:26:33.497Z,21.36
2022-08-05T02:29:01.145Z,21.13
2022-08-05T02:31:35.050Z,21.20
2022-08-05T02:34:03.785Z,21.28
2022-08-05T02:36:34.292Z,21.43
2022-08-05T02:39:03.182Z,21.54
2022-08-05T02:41:36.450Z,21.58
2022-08-05T02:44:19.530Z,21.61
2022-08-05T02:46:58.780Z,21.64
2022-08-05T02:49:35.768Z,21.65
2022-08-05T02:52:04.849Z,21.62
2022-08-05T02:54:35.740Z,21.57
2022-08-05T02:57:03.845Z,21.49
2022-08-05T02:59:47.828Z,21.50
2022-08-05T03:02:22.781Z,21.48
2022-08-05T03:04:53.270Z,21.48
2022-08-05T03:07:40.430Z,21.48
2022-08-05T03:10:07.164Z,21.49
2022-08-05T03:12:51.918Z,21.42
2022-08-05T03:15:20.112Z,21.39
2022-08-05T03:17:46.640Z,21.36
2022-08-05T03:20:13.463Z,21.37
2022-08-05T03:22:46.861Z,21.34
2022-08-05T03:25:33.820Z,21.34
2022-08-05T03:28:05.452Z,21.34
2022-08-05T03:30:33.968Z,21.37
2022-08-05T03:33:05.784Z,21.41
2022-08-05T03:35:40.519Z,21.38
2022-08-05T03:38:08.179Z,21.43
2022-08-05T03:40:34.675Z,21.37
2022-08-05T03:43:59.198Z,21.37
2022-08-05T03:45:57.605Z,21.34
2022-08-05T03:48:25.969Z,21.26
2022-08-05T03:52:37.149Z,21.17
2022-08-05T03:55:50.016Z,21.10
2022-08-05T03:56:42.037Z,21.09
2022-08-05T03:59:14.999Z,20.95
2022-08-05T04:01:47.963Z,20.95
2022-08-05T04:04:16.798Z,20.99
2022-08-05T04:06:51.084Z,20.94
2022-08-05T04:09:26.009Z,20.76
2022-08-05T04:11:53.471Z,20.57
2022-08-05T04:14:30.233Z,20.64
2022-08-05T04:16:57.557Z,20.73
2022-08-05T04:19:24.016Z,20.80
2022-08-05T04:22:08.319Z,20.78
2022-08-05T04:24:37.827Z,20.85
2022-08-05T04:27:10.867Z,20.86
2022-08-05T04:29:37.335Z,20.83
2022-08-05T04:32:03.847Z,20.85
2022-08-05T04:34:32.512Z,20.86
2022-08-05T04:37:00.848Z,20.84
2022-08-05T04:39:29.842Z,20.87
2022-08-05T04:41:56.335Z,20.81
2022-08-05T04:44:30.017Z,20.77
2022-08-05T04:47:09.400Z,20.59
2022-08-05T04:50:01.515Z,20.58
2022-08-05T04:52:23.591Z,20.55
2022-08-05T04:54:53.995Z,20.57
2022-08-05T04:57:28.611Z,20.56
2022-08-05T04:59:55.835Z,20.56
2022-08-05T05:02:37.433Z,20.54
2022-08-05T05:05:26.270Z,20.59
2022-08-05T05:08:01.720Z,20.66
2022-08-05T05:10:29.591Z,20.61
2022-08-05T05:12:56.381Z,20.57
2022-08-05T05:15:57.545Z,20.59
2022-08-05T05:18:31.460Z,20.60
2022-08-05T05:21:01.123Z,20.58
2022-08-05T05:23:39.327Z,20.55
2022-08-05T05:26:14.116Z,20.60
2022-08-05T05:28:44.754Z,20.65
2022-08-05T05:31:11.619Z,20.72
2022-08-05T05:33:58.911Z,20.77
2022-08-05T05:36:24.477Z,20.77
2022-08-05T05:38:55.404Z,20.77
2022-08-05T05:41:21.920Z,20.70
2022-08-05T05:43:58.354Z,20.62
2022-08-05T05:46:27.016Z,20.57
2022-08-05T05:48:53.532Z,20.53
2022-08-05T05:51:20.672Z,20.48
2022-08-05T05:53:58.367Z,20.40
2022-08-05T05:56:32.618Z,20.42
2022-08-05T05:59:03.252Z,20.39
2022-08-05T06:01:36.882Z,20.45
2022-08-05T06:04:05.065Z,20.51
2022-08-05T06:06:34.702Z,20.58
2022-08-05T06:09:01.882Z,20.55
2022-08-05T06:11:30.942Z,20.53
2022-08-05T06:13:57.468Z,20.61
2022-08-05T06:16:30.385Z,20.65
2022-08-05T06:18:59.968Z,20.70
2022-08-05T06:21:36.091Z,20.73
2022-08-05T06:24:11.524Z,20.75
2022-08-05T06:26:38.704Z,20.75
2022-08-05T06:29:06.427Z,20.77
2022-08-05T06:31:51.482Z,20.77
2022-08-05T06:34:19.922Z,20.80
2022-08-05T06:36:58.150Z,20.70
2022-08-05T06:39:27.856Z,20.57
2022-08-05T06:41:56.068Z,20.57
2022-08-05T06:44:25.196Z,20.41
2022-08-05T06:46:52.579Z,20.53
2022-08-05T06:49:21.123Z,20.61
2022-08-05T06:52:07.520Z,20.71
2022-08-05T06:54:53.908Z,20.74
2022-08-05T06:57:57.131Z,20.64
2022-08-05T07:00:07.279Z,20.72
2022-08-05T07:02:46.246Z,20.73
2022-08-05T07:05:18.517Z,20.72
2022-08-05T07:07:48.906Z,20.76
2022-08-05T07:10:16.373Z,20.81
2022-08-05T07:13:02.136Z,20.86
2022-08-05T07:16:00.992Z,20.95
2022-08-05T07:18:31.417Z,21.02
2022-08-05T07:20:58.189Z,21.09
2022-08-05T07:23:31.308Z,21.17
2022-08-05T07:25:57.779Z,21.16
2022-08-05T07:28:25.237Z,21.30
2022-08-05T07:30:54.715Z,21.66
2022-08-05T07:33:35.035Z,21.85
2022-08-05T07:36:20.732Z,22.11
2022-08-05T07:38:48.943Z,22.35
2022-08-05T07:42:13.795Z,22.44
2022-08-05T07:44:14.344Z,22.59
2022-08-05T07:46:49.257Z,22.90
2022-08-05T07:49:17.985Z,23.03
2022-08-05T07:51:53.138Z,23.17
2022-08-05T07:54:26.621Z,23.38
2022-08-05T07:57:13.298Z,23.52
2022-08-05T07:59:43.291Z,23.66
2022-08-05T08:02:15.715Z,23.42
2022-08-05T08:04:44.842Z,23.70
2022-08-05T08:07:11.787Z,23.92
2022-08-05T08:09:38.491Z,24.02
2022-08-05T08:12:14.341Z,24.13
2022-08-05T08:14:47.103Z,24.21
2022-08-05T08:17:21.266Z,24.03
2022-08-05T08:20:22.756Z,24.00
2022-08-05T08:22:35.192Z,23.98
2022-08-05T08:25:03.190Z,24.02
2022-08-05T08:27:35.818Z,24.11
2022-08-05T08:30:29.382Z,24.07
2022-08-05T08:33:02.698Z,24.16
2022-08-05T08:35:41.403Z,24.10
2022-08-05T08:38:35.858Z,24.01
2022-08-05T08:41:10.081Z,23.95
2022-08-05T08:45:18.223Z,24.09
2022-08-05T08:46:31.750Z,24.19
2022-08-05T08:50:03.952Z,23.93
2022-08-05T08:52:02.821Z,23.90
2022-08-05T08:54:32.435Z,24.34
2022-08-05T08:56:59.290Z,24.36
2022-08-05T08:59:27.761Z,24.32
2022-08-05T09:02:01.286Z,24.30
2022-08-05T09:04:30.086Z,24.34
2022-08-05T09:06:57.488Z,24.19
2022-08-05T09:09:24.891Z,24.23
2022-08-05T09:11:57.815Z,24.29
2022-08-05T09:14:58.277Z,24.24
2022-08-05T09:17:42.303Z,24.28
2022-08-05T09:20:05.712Z,24.34
2022-08-05T09:23:09.515Z,24.39
2022-08-05T09:25:59.803Z,24.43
2022-08-05T09:28:32.500Z,24.38
2022-08-05T09:31:43.687Z,24.27
2022-08-05T09:34:06.534Z,24.37
2022-08-05T09:36:59.687Z,24.49
2022-08-05T09:39:41.131Z,24.39
2022-08-05T09:42:17.260Z,24.63
2022-08-05T09:44:49.406Z,24.69
2022-08-05T09:47:20.498Z,24.67
2022-08-05T09:49:54.498Z,24.74
2022-08-05T09:52:28.318Z,25.00
2022-08-05T09:54:55.948Z,25.24
2022-08-05T09:57:48.886Z,25.16
2022-08-05T10:00:24.730Z,25.04
2022-08-05T10:02:54.657Z,25.21
2022-08-05T10:05:23.688Z,25.12
2022-08-05T10:08:36.831Z,25.47
2022-08-05T10:10:54.347Z,25.42
2022-08-05T10:13:31.548Z,25.59
2022-08-05T10:16:29.955Z,25.69
2022-08-05T10:18:56.590Z,25.39
2022-08-05T10:21:23.761Z,25.43
2022-08-05T10:23:58.974Z,25.47
2022-08-05T10:26:32.551Z,25.25
2022-08-05T10:29:00.779Z,25.40
2022-08-05T10:33:01.487Z,25.41
2022-08-05T10:34:13.806Z,25.39
2022-08-05T10:36:41.437Z,25.26
2022-08-05T10:39:24.274Z,25.32
2022-08-05T10:42:01.455Z,25.37
2022-08-05T10:44:29.500Z,25.48
2022-08-05T10:46:56.803Z,25.49
2022-08-05T10:49:27.052Z,25.70
2022-08-05T10:52:00.732Z,25.86
2022-08-05T10:54:56.845Z,25.92
2022-08-05T10:57:30.936Z,25.99
2022-08-05T11:00:19.213Z,26.13
2022-08-05T11:03:23.573Z,26.14
2022-08-05T11:06:14.697Z,25.86
2022-08-05T11:09:01.492Z,25.61
2022-08-05T11:11:44.310Z,25.68
2022-08-05T11:14:57.872Z,25.81
2022-08-05T11:17:56.828Z,25.92
2022-08-05T11:20:32.930Z,26.31
2022-08-05T11:23:08.839Z,26.22
2022-08-05T11:26:05.418Z,26.23
2022-08-05T11:28:25.135Z,26.44
2022-08-05T11:30:56.213Z,26.22
2022-08-05T11:33:44.075Z,25.94
2022-08-05T11:36:14.740Z,26.18
2022-08-05T11:38:51.074Z,26.29
2022-08-05T11:41:58.154Z,26.35
2022-08-05T11:44:40.623Z,26.95
2022-08-05T11:47:12.054Z,26.98
2022-08-05T11:49:43.272Z,26.95
2022-08-05T11:52:23.376Z,27.13
2022-08-05T11:54:56.563Z,27.50
2022-08-05T11:57:28.243Z,27.51
2022-08-05T11:59:57.385Z,27.64
2022-08-05T12:02:30.367Z,27.77
2022-08-05T12:04:59.968Z,27.87
2022-08-05T12:08:03.413Z,27.79
2022-08-05T12:10:17.879Z,27.24
2022-08-05T12:12:46.644Z,27.25
2022-08-05T12:15:37.778Z,27.30
2022-08-05T12:18:10.525Z,27.64
2022-08-05T12:20:39.054Z,27.77
2022-08-05T12:23:09.716Z,28.03
2022-08-05T12:25:56.895Z,28.28
2022-08-05T12:28:33.355Z,28.22
2022-08-05T12:31:02.282Z,28.12
2022-08-05T12:33:36.403Z,28.11
2022-08-05T12:36:07.984Z,28.54
2022-08-05T12:38:40.006Z,28.09
2022-08-05T12:41:13.101Z,27.50
2022-08-05T12:43:53.967Z,27.55
2022-08-05T12:46:28.766Z,27.68
2022-08-05T12:49:14.493Z,27.42
2022-08-05T12:52:12.789Z,27.12
2022-08-05T12:54:32.193Z,27.20
2022-08-05T12:57:03.808Z,26.84
2022-08-05T13:00:08.982Z,26.62
2022-08-05T13:02:21.969Z,26.90
2022-08-05T13:04:54.987Z,27.01
2022-08-05T13:07:56.033Z,26.98
2022-08-05T13:10:13.556Z,26.84
2022-08-05T13:12:50.694Z,26.91
2022-08-05T13:15:41.076Z,26.96
2022-08-05T13:18:19.741Z,27.12
2022-08-05T13:20:47.095Z,27.20
2022-08-05T13:23:13.632Z,26.74
2022-08-05T13:25:58.866Z,26.59
2022-08-05T13:28:26.730Z,26.72
2022-08-05T13:30:53.615Z,26.75
2022-08-05T13:34:22.288Z,26.62
2022-08-05T13:36:09.315Z,26.80
2022-08-05T13:38:41.932Z,26.60
2022-08-05T13:41:09.677Z,26.91
2022-08-05T13:43:45.858Z,26.77
2022-08-05T13:46:50.960Z,26.68
2022-08-05T13:49:11.890Z,26.77
2022-08-05T13:51:41.041Z,26.75
2022-08-05T13:54:13.241Z,26.45
2022-08-05T13:56:44.923Z,25.52
2022-08-05T13:59:19.608Z,25.34
2022-08-05T14:01:57.784Z,25.09
2022-08-05T14:04:49.769Z,25.04
2022-08-05T14:07:55.718Z,25.05
2022-08-05T14:10:13.604Z,25.00
2022-08-05T14:12:48.771Z,24.74
2022-08-05T14:16:08.432Z,24.68
2022-08-05T14:18:02.430Z,24.58
2022-08-05T14:20:30.796Z,24.20
2022-08-05T14:22:57.995Z,24.07
2022-08-05T14:25:28.205Z,24.00
2022-08-05T14:27:56.528Z,23.75
2022-08-05T14:30:26.540Z,23.69
2022-08-05T14:32:54.335Z,23.68
2022-08-05T14:35:23.333Z,23.63
2022-08-05T14:38:04.201Z,22.97
2022-08-05T14:40:30.893Z,22.73
2022-08-05T14:42:57.340Z,22.55
2022-08-05T14:45:24.734Z,22.62
2022-08-05T14:48:03.857Z,22.43
2022-08-05T14:50:32.500Z,22.27
2022-08-05T14:53:00.250Z,22.21
2022-08-05T14:55:28.762Z,21.95
2022-08-05T14:58:11.838Z,22.00
2022-08-05T15:00:39.596Z,21.71
2022-08-05T15:03:25.435Z,21.68
2022-08-05T15:06:07.550Z,21.69
2022-08-05T15:08:59.314Z,21.43
2022-08-05T15:11:24.795Z,21.11
2022-08-05T15:14:11.323Z,20.78
2022-08-05T15:16:47.117Z,20.44
2022-08-05T15:19:23.183Z,20.36
2022-08-05T15:21:50.224Z,20.32
2022-08-05T15:24:16.714Z,20.30
2022-08-05T15:26:43.198Z,20.38
2022-08-05T15:29:10.375Z,20.30
2022-08-05T15:31:36.900Z,20.28
2022-08-05T15:34:19.452Z,20.10
2022-08-05T15:36:49.818Z,20.05
2022-08-05T15:41:00.281Z,19.92
2022-08-05T15:42:02.803Z,19.95
2022-08-05T15:44:49.098Z,19.71
2022-08-05T15:47:16.459Z,19.56
2022-08-05T15:49:55.200Z,19.44
2022-08-05T15:52:51.930Z,19.38
2022-08-05T15:55:15.972Z,19.28
2022-08-05T15:57:43.227Z,19.28
2022-08-05T16:00:12.253Z,19.29
2022-08-05T16:02:43.464Z,19.23
2022-08-05T16:05:11.322Z,19.29
2022-08-05T16:07:37.864Z,19.41
2022-08-05T16:10:04.868Z,19.49
2022-08-05T16:12:36.163Z,19.45
2022-08-05T16:15:04.230Z,19.50
2022-08-05T16:17:31.397Z,19.52
2022-08-05T16:20:05.608Z,19.58
2022-08-05T16:22:38.252Z,19.65
2022-08-05T16:25:08.058Z,19.65
2022-08-05T16:28:01.085Z,19.52
2022-08-05T16:30:26.163Z,19.44
2022-08-05T16:32:52.995Z,19.48
2022-08-05T16:35:19.416Z,19.42
2022-08-05T16:38:15.171Z,19.26
2022-08-05T16:40:41.220Z,19.36
2022-08-05T16:43:07.714Z,19.38
2022-08-05T16:46:05.267Z,19.42
2022-08-05T16:48:25.627Z,19.48
2022-08-05T16:50:53.268Z,19.53
2022-08-05T16:53:22.933Z,19.59
2022-08-05T16:55:59.098Z,19.64
2022-08-05T16:58:26.033Z,19.72
2022-08-05T17:00:52.794Z,19.76
2022-08-05T17:03:20.117Z,19.76
2022-08-05T17:05:51.721Z,19.67
2022-08-05T17:08:36.733Z,19.65
2022-08-05T17:11:08.932Z,19.61
2022-08-05T17:13:41.604Z,19.64
2022-08-05T17:16:29.893Z,19.69
2022-08-05T17:18:55.317Z,19.76
2022-08-05T17:21:23.777Z,19.64
2022-08-05T17:24:05.606Z,19.68
2022-08-05T17:26:35.190Z,19.63
2022-08-05T17:29:07.490Z,19.67
2022-08-05T17:31:56.548Z,19.65
2022-08-05T17:34:30.093Z,19.60
2022-08-05T17:36:59.382Z,19.55
2022-08-05T17:39:34.193Z,19.58
2022-08-05T17:42:20.337Z,19.59
2022-08-05T17:44:50.545Z,19.51
2022-08-05T17:47:23.601Z,19.53
2022-08-05T17:49:59.696Z,19.59
2022-08-05T17:52:30.226Z,19.59
2022-08-05T17:54:56.741Z,19.56
2022-08-05T17:57:23.217Z,19.56
2022-08-05T18:00:03.069Z,19.57
2022-08-05T18:02:30.306Z,19.51
2022-08-05T18:04:57.737Z,19.51
2022-08-05T18:07:25.352Z,19.50
2022-08-05T18:10:10.488Z,19.54
2022-08-05T18:12:37.450Z,19.56
2022-08-05T18:15:04.755Z,19.54
2022-08-05T18:17:58.684Z,19.48
2022-08-05T18:20:19.373Z,19.48
2022-08-05T18:22:57.365Z,19.43
2022-08-05T18:25:25.422Z,19.31
2022-08-05T18:28:01.526Z,19.25
2022-08-05T18:30:31.089Z,19.18
2022-08-05T18:33:00.275Z,19.13
2022-08-05T18:35:49.570Z,19.10
2022-08-05T18:38:16.268Z,19.04
2022-08-05T18:41:57.225Z,18.95
2022-08-05T18:43:37.884Z,18.96
2022-08-05T18:46:09.593Z,18.94
2022-08-05T18:48:36.744Z,18.88
2022-08-05T18:52:04.357Z,18.86
2022-08-05T18:54:13.282Z,18.78
2022-08-05T18:56:40.397Z,18.74
2022-08-05T18:59:42.040Z,18.69
2022-08-05T19:01:57.005Z,18.59
2022-08-05T19:04:24.778Z,18.56
2022-08-05T19:06:51.613Z,18.49
2022-08-05T19:09:20.250Z,18.43
2022-08-05T19:11:59.999Z,18.42
2022-08-05T19:14:52.208Z,18.38
2022-08-05T19:17:14.545Z,18.32
2022-08-05T19:19:44.177Z,18.30
2022-08-05T19:22:17.090Z,18.27
2022-08-05T19:24:56.144Z,18.22
2022-08-05T19:27:23.563Z,18.20
2022-08-05T19:29:50.178Z,18.09
2022-08-05T19:32:16.619Z,18.06
2022-08-05T19:34:54.637Z,18.01
2022-08-05T19:37:30.055Z,17.94
2022-08-05T19:40:09.996Z,17.90
2022-08-05T19:42:37.079Z,17.85
2022-08-05T19:45:07.152Z,17.81
2022-08-05T19:47:37.252Z,17.77
2022-08-05T19:50:04.942Z,17.69
2022-08-05T19:52:34.088Z,17.66
2022-08-05T19:55:06.779Z,17.62
2022-08-05T19:57:49.104Z,17.57
2022-08-05T20:00:22.262Z,17.46
2022-08-05T20:02:48.696Z,17.41
2022-08-05T20:05:16.481Z,17.36
2022-08-05T20:07:53.895Z,17.31
2022-08-05T20:10:24.567Z,17.24
2022-08-05T20:12:51.909Z,17.24
2022-08-05T20:15:48.575Z,17.21
2022-08-05T20:18:10.304Z,17.14
2022-08-05T20:20:55.912Z,17.06
2022-08-05T20:23:23.159Z,17.01
2022-08-05T20:25:52.226Z,16.94
2022-08-05T20:28:20.055Z,16.91
2022-08-05T20:30:47.939Z,16.84
2022-08-05T20:33:16.168Z,16.81
2022-08-05T20:35:45.595Z,16.73
2022-08-05T20:38:14.378Z,16.71
2022-08-05T20:40:50.427Z,16.66
2022-08-05T20:43:17.348Z,16.62
2022-08-05T20:46:00.363Z,16.58
2022-08-05T20:48:27.010Z,16.53
2022-08-05T20:50:53.420Z,16.48
2022-08-05T20:53:36.576Z,16.43
2022-08-05T20:56:09.701Z,16.37
2022-08-05T20:58:37.028Z,16.36
2022-08-05T21:01:03.898Z,16.32
2022-08-05T21:03:34.468Z,16.25
2022-08-05T21:06:01.793Z,16.20
2022-08-05T21:08:42.051Z,16.15
2022-08-05T21:11:12.659Z,16.11
2022-08-05T21:13:47.931Z,16.07
2022-08-05T21:16:29.581Z,16.04
2022-08-05T21:19:00.914Z,15.99
2022-08-05T21:21:39.053Z,15.95
2022-08-05T21:24:12.725Z,15.91
2022-08-05T21:26:44.113Z,15.85
2022-08-05T21:29:40.723Z,15.81
2022-08-05T21:32:09.902Z,15.78
2022-08-05T21:34:43.552Z,15.76
2022-08-05T21:37:22.725Z,15.73
2022-08-05T21:39:49.798Z,15.67
2022-08-05T21:42:41.004Z,15.64
2022-08-05T21:45:11.807Z,15.61
2022-08-05T21:47:57.111Z,15.58
2022-08-05T21:50:24.744Z,15.56
2022-08-05T21:52:51.300Z,15.55
2022-08-05T21:55:42.841Z,15.53
2022-08-05T21:58:05.753Z,15.54
2022-08-05T22:00:32.306Z,15.55
2022-08-05T22:02:59.782Z,15.55
2022-08-05T22:05:27.494Z,15.55
2022-08-05T22:07:59.216Z,15.57
2022-08-05T22:10:29.098Z,15.58
2022-08-05T22:12:57.286Z,15.57
2022-08-05T22:15:56.472Z,15.55
2022-08-05T22:18:11.065Z,15.52
2022-08-05T22:20:38.839Z,15.52
2022-08-05T22:23:24.975Z,15.52
2022-08-05T22:26:29.794Z,15.50
2022-08-05T22:28:56.415Z,15.47
2022-08-05T22:31:22.869Z,15.46
2022-08-05T22:33:58.003Z,15.41
2022-08-05T22:36:27.541Z,15.38
2022-08-05T22:38:55.482Z,15.32
2022-08-05T22:42:05.462Z,15.32
2022-08-05T22:44:08.884Z,15.27
2022-08-05T22:46:39.807Z,15.23
2022-08-05T22:49:12.486Z,15.20
2022-08-05T22:52:04.479Z,15.17
2022-08-05T22:54:34.971Z,15.15
2022-08-05T22:57:01.568Z,15.12
2022-08-05T22:59:46.311Z,15.07
2022-08-05T23:02:16.653Z,15.04
2022-08-05T23:04:43.703Z,14.99
2022-08-05T23:07:18.217Z,14.96
2022-08-05T23:09:53.362Z,14.91
2022-08-05T23:12:28.609Z,14.87
2022-08-05T23:14:55.413Z,14.83
2022-08-05T23:17:34.625Z,14.80
2022-08-05T23:20:06.121Z,14.74
2022-08-05T23:22:43.023Z,14.70
2022-08-05T23:25:09.439Z,14.66
2022-08-05T23:27:57.540Z,14.61
2022-08-05T23:30:27.025Z,14.56
2022-08-05T23:32:55.466Z,14.55
2022-08-05T23:35:24.252Z,14.53
2022-08-05T23:37:54.935Z,14.50
2022-08-05T23:40:27.080Z,14.47
2022-08-05T23:42:53.919Z,14.44
2022-08-05T23:45:20.502Z,14.40
2022-08-05T23:47:50.273Z,14.38
2022-08-05T23:50:20.523Z,14.33
2022-08-05T23:52:49.765Z,14.29
2022-08-05T23:55:18.988Z,14.26
2022-08-05T23:57:48.957Z,14.22
